createdAt,value
2023-03-28T00:01:29.361Z,99985.93
2023-03-28T00:06:32.802Z,99984.20
2023-03-28T00:11:36.131Z,99978.70
2023-03-28T00:17:02.115Z,99982.80
2023-03-28T00:22:05.530Z,99976.25
2023-03-28T00:27:09.091Z,99968.77
2023-03-28T00:32:12.642Z,99968.98
2023-03-28T00:37:17.533Z,99965.67
2023-03-28T00:42:31.645Z,99972.44
2023-03-28T00:48:13.944Z,99972.86
2023-03-28T00:53:33.964Z,99969.70
2023-03-28T00:58:42.409Z,99965.91
2023-03-28T01:03:56.358Z,99967.91
2023-03-28T01:09:06.639Z,99966.30
2023-03-28T01:14:13.428Z,99960.67
2023-03-28T01:19:59.188Z,99960.75
2023-03-28T01:25:45.663Z,99943.68
2023-03-28T01:31:18.008Z,99939.09
2023-03-28T01:37:31.622Z,99926.93
2023-03-28T01:43:08.307Z,99925.55
2023-03-28T01:48:11.563Z,99934.09
2023-03-28T01:54:26.804Z,99933.36
2023-03-28T01:59:41.456Z,99926.02
2023-03-28T02:05:25.045Z,99926.53
2023-03-28T02:10:33.554Z,99924.27
2023-03-28T02:15:57.990Z,99922.34
2023-03-28T02:21:29.772Z,99923.00
2023-03-28T02:26:55.249Z,99924.50
2023-03-28T02:32:12.451Z,99921.09
2023-03-28T02:37:49.001Z,99915.11
2023-03-28T02:43:52.089Z,99915.71
2023-03-28T02:49:49.599Z,99913.05
2023-03-28T02:55:03.308Z,99904.58
2023-03-28T03:00:19.662Z,99897.30
2023-03-28T03:05:23.683Z,99893.77
2023-03-28T03:10:29.690Z,99885.04
2023-03-28T03:15:57.832Z,99881.49
2023-03-28T03:21:02.062Z,99886.41
2023-03-28T03:26:19.876Z,99884.85
2023-03-28T03:31:49.712Z,99888.78
2023-03-28T03:37:12.094Z,99889.47
2023-03-28T03:42:15.984Z,99879.96
2023-03-28T03:48:19.872Z,99871.55
2023-03-28T03:53:28.472Z,99869.59
2023-03-28T03:58:45.659Z,99869.93
2023-03-28T04:03:49.402Z,99877.20
2023-03-28T04:08:58.875Z,99873.66
2023-03-28T04:14:25.344Z,99866.41
2023-03-28T04:19:40.785Z,99864.26
2023-03-28T04:24:45.099Z,99862.88
2023-03-28T04:30:04.656Z,99857.27
2023-03-28T04:35:31.090Z,99854.56
2023-03-28T04:40:34.779Z,99855.38
2023-03-28T04:46:01.557Z,99846.19
2023-03-28T04:51:06.314Z,99851.00
2023-03-28T04:56:16.357Z,99861.21
2023-03-28T05:01:20.020Z,99862.79
2023-03-28T05:07:15.133Z,99861.29
2023-03-28T05:12:19.136Z,99863.12
2023-03-28T05:18:12.370Z,99856.02
2023-03-28T05:23:38.853Z,99851.90
2023-03-28T05:28:58.433Z,99854.45
2023-03-28T05:34:02.252Z,99855.73
2023-03-28T05:39:46.275Z,99853.21
2023-03-28T05:44:57.865Z,99854.08
2023-03-28T05:50:25.191Z,99856.88
2023-03-28T05:55:35.557Z,99860.17
2023-03-28T06:00:39.594Z,99864.17
2023-03-28T06:05:48.300Z,99863.52
2023-03-28T06:11:13.373Z,99862.91
2023-03-28T06:16:49.436Z,99870.21
2023-03-28T06:21:54.034Z,99871.83
2023-03-28T06:27:00.907Z,99875.45
2023-03-28T06:32:28.123Z,99877.21
2023-03-28T06:37:47.551Z,99880.71
2023-03-28T06:43:35.827Z,99880.26
2023-03-28T06:48:59.624Z,99879.28
2023-03-28T06:54:03.332Z,99884.80
2023-03-28T06:59:11.679Z,99887.77
2023-03-28T07:04:17.851Z,99894.83
2023-03-28T07:09:22.078Z,99896.41
2023-03-28T07:14:33.780Z,99904.18
2023-03-28T07:20:01.683Z,99907.15
2023-03-28T07:25:26.824Z,99916.13
2023-03-28T07:30:33.528Z,99922.68
2023-03-28T07:35:40.530Z,99927.70
2023-03-28T07:40:46.862Z,99934.63
2023-03-28T07:45:50.964Z,99933.98
2023-03-28T07:50:54.476Z,99930.92
2023-03-28T07:55:58.301Z,99936.80
2023-03-28T08:01:10.059Z,99944.20
2023-03-28T08:06:32.343Z,99947.67
2023-03-28T08:11:41.825Z,99951.63
2023-03-28T08:16:48.217Z,99952.48
2023-03-28T08:21:52.072Z,99961.41
2023-03-28T08:26:58.136Z,99963.98
2023-03-28T08:32:08.468Z,99969.44
2023-03-28T08:37:29.108Z,99967.16
2023-03-28T08:43:14.799Z,99966.45
2023-03-28T08:48:37.517Z,99977.55
2023-03-28T08:53:49.225Z,99981.36
2023-03-28T08:59:08.567Z,99987.21
2023-03-28T09:04:35.718Z,99982.56
2023-03-28T09:10:07.084Z,99993.05
2023-03-28T09:16:24.633Z,100008.34
2023-03-28T09:22:15.141Z,100027.81
2023-03-28T09:28:02.262Z,100041.86
2023-03-28T09:33:25.858Z,100048.26
2023-03-28T09:38:46.506Z,100059.52
2023-03-28T09:44:15.149Z,100064.45
2023-03-28T09:50:13.223Z,100072.92
2023-03-28T09:56:04.812Z,100081.54
2023-03-28T10:01:38.981Z,100102.59
2023-03-28T10:07:14.555Z,100116.43
2023-03-28T10:12:27.419Z,100127.85
2023-03-28T10:17:36.701Z,100131.59
2023-03-28T10:23:04.375Z,100141.15
2023-03-28T10:28:30.267Z,100149.88
2023-03-28T10:34:01.848Z,100164.27
2023-03-28T10:39:44.172Z,100178.02
2023-03-28T10:46:11.112Z,100188.65
2023-03-28T10:51:53.228Z,100202.20
2023-03-28T10:58:09.604Z,100205.70
2023-03-28T11:04:47.871Z,100213.54
2023-03-28T11:10:06.694Z,100225.73
2023-03-28T11:16:45.382Z,100240.11
2023-03-28T11:22:08.016Z,100244.89
2023-03-28T11:28:11.512Z,100250.42
2023-03-28T11:34:37.368Z,100255.46
2023-03-28T11:40:01.377Z,100258.59
2023-03-28T11:45:50.349Z,100268.10
2023-03-28T11:51:05.131Z,100275.06
2023-03-28T11:57:10.950Z,100283.72
2023-03-28T12:03:55.241Z,100296.06
2023-03-28T12:09:14.191Z,100306.77
2023-03-28T12:14:42.427Z,100312.27
2023-03-28T12:19:56.609Z,100320.52
2023-03-28T12:25:06.350Z,100319.33
2023-03-28T12:30:22.481Z,100324.52
2023-03-28T12:35:35.818Z,100326.77
2023-03-28T12:40:54.929Z,100325.42
2023-03-28T12:46:03.377Z,100335.42
2023-03-28T12:52:17.554Z,100342.05
2023-03-28T12:57:49.654Z,100343.90
2023-03-28T13:03:48.481Z,100343.39
2023-03-28T13:09:20.428Z,100346.29
2023-03-28T13:14:44.087Z,100346.27
2023-03-28T13:20:13.673Z,100355.59
2023-03-28T13:25:29.429Z,100363.38
2023-03-28T13:30:41.928Z,100366.73
2023-03-28T13:36:10.585Z,100370.86
2023-03-28T13:42:00.229Z,100376.98
2023-03-28T13:47:13.441Z,100384.98
2023-03-28T13:52:37.091Z,100397.30
2023-03-28T13:57:44.007Z,100400.79
2023-03-28T14:03:04.569Z,100403.73
2023-03-28T14:08:17.568Z,100410.66
2023-03-28T14:13:24.840Z,100407.90
2023-03-28T14:18:28.540Z,100419.31
2023-03-28T14:23:41.084Z,100420.50
2023-03-28T14:28:46.646Z,100425.33
2023-03-28T14:33:50.933Z,100433.08
2023-03-28T14:39:02.752Z,100435.45
2023-03-28T14:44:07.318Z,100442.92
2023-03-28T14:49:53.760Z,100445.96
2023-03-28T14:55:01.819Z,100444.88
2023-03-28T15:00:34.345Z,100448.25
2023-03-28T15:05:38.551Z,100454.41
2023-03-28T15:11:45.679Z,100468.13
2023-03-28T15:16:54.847Z,100476.42
2023-03-28T15:22:27.001Z,100490.44
2023-03-28T15:28:36.309Z,100494.54
2023-03-28T15:33:55.552Z,100502.70
2023-03-28T15:39:18.717Z,100505.05
2023-03-28T15:45:00.131Z,100512.67
2023-03-28T15:50:44.201Z,100519.48
2023-03-28T15:56:17.557Z,100527.14
2023-03-28T16:01:23.400Z,100527.38
2023-03-28T16:11:46.418Z,100563.55
2023-03-28T16:17:28.873Z,100571.04
2023-03-28T16:22:52.880Z,100583.29
2023-03-28T16:27:56.868Z,100586.54
2023-03-28T16:33:03.666Z,100588.14
2023-03-28T16:38:07.637Z,100591.52
2023-03-28T16:43:15.382Z,100604.44
2023-03-28T16:48:19.110Z,100611.86
2023-03-28T16:53:22.855Z,100614.38
2023-03-28T17:05:00.742Z,100625.70
2023-03-28T17:10:23.342Z,100632.33
2023-03-28T17:15:26.872Z,100643.54
2023-03-28T17:20:31.325Z,100657.53
2023-03-28T17:25:39.180Z,100661.45
2023-03-28T17:30:52.848Z,100683.02
2023-03-28T17:35:57.101Z,100683.92
2023-03-28T17:41:01.231Z,100695.45
2023-03-28T17:46:16.410Z,100694.10
2023-03-28T17:51:20.210Z,100707.44
2023-03-28T17:56:24.358Z,100716.89
2023-03-28T18:01:43.804Z,100719.23
2023-03-28T18:06:47.890Z,100724.50
2023-03-28T18:12:12.104Z,100732.92
2023-03-28T18:18:13.082Z,100736.23
2023-03-28T18:24:35.600Z,100736.59
2023-03-28T18:29:52.714Z,100742.14
2023-03-28T18:34:56.116Z,100739.70
2023-03-28T18:40:00.404Z,100744.44
2023-03-28T18:45:04.797Z,100742.20
2023-03-28T18:50:15.296Z,100745.80
2023-03-28T18:55:21.616Z,100753.06
2023-03-28T19:00:47.074Z,100752.05
2023-03-28T19:05:58.636Z,100751.02
2023-03-28T19:11:11.940Z,100756.42
2023-03-28T19:16:19.374Z,100758.09
2023-03-28T19:21:43.540Z,100756.67
2023-03-28T19:27:05.059Z,100758.73
2023-03-28T19:32:11.927Z,100756.17
2023-03-28T19:37:15.575Z,100754.86
2023-03-28T19:42:50.559Z,100759.77
2023-03-28T19:48:24.335Z,100764.67
2023-03-28T19:53:45.188Z,100765.33
2023-03-28T19:58:48.877Z,100766.20
2023-03-28T20:03:59.704Z,100769.77
2023-03-28T20:09:03.692Z,100773.58
2023-03-28T20:19:43.021Z,100773.41
2023-03-28T20:24:48.862Z,100773.40
2023-03-28T20:30:20.716Z,100778.70
2023-03-28T20:36:44.278Z,100776.05
2023-03-28T20:42:24.359Z,100778.58
2023-03-28T20:47:28.820Z,100771.63
2023-03-28T20:52:39.142Z,100771.69
2023-03-28T20:57:42.562Z,100772.15
2023-03-28T21:02:53.780Z,100773.49
2023-03-28T21:07:59.320Z,100776.14
2023-03-28T21:13:04.755Z,100777.98
2023-03-28T21:18:09.729Z,100779.81
2023-03-28T21:23:13.365Z,100786.29
2023-03-28T21:28:16.852Z,100791.45
2023-03-28T21:33:20.530Z,100794.91
2023-03-28T21:38:24.313Z,100796.43
2023-03-28T21:43:27.826Z,100798.91
2023-03-28T21:48:34.207Z,100802.60
2023-03-28T21:53:38.157Z,100804.56
2023-03-28T21:58:41.687Z,100803.06
2023-03-28T22:04:10.101Z,100805.85
2023-03-28T22:09:34.167Z,100806.42
2023-03-28T22:14:37.533Z,100800.98
2023-03-28T22:19:41.731Z,100803.40
2023-03-28T22:24:47.544Z,100800.01
2023-03-28T22:30:11.095Z,100800.91
2023-03-28T22:35:39.137Z,100798.39
2023-03-28T22:40:51.117Z,100802.05
2023-03-28T22:46:06.274Z,100802.27
2023-03-28T22:51:13.152Z,100807.44
2023-03-28T22:56:24.420Z,100808.36
2023-03-28T23:01:31.206Z,100809.28
2023-03-28T23:06:41.725Z,100804.10
2023-03-28T23:11:45.564Z,100802.73
2023-03-28T23:17:02.340Z,100805.48
2023-03-28T23:22:26.545Z,100806.13
2023-03-28T23:27:56.121Z,100805.58
2023-03-28T23:33:17.017Z,100806.43
2023-03-28T23:38:20.358Z,100806.61
2023-03-28T23:43:24.724Z,100807.84
2023-03-28T23:48:28.275Z,100812.80
2023-03-28T23:53:44.908Z,100811.61
2023-03-28T23:59:08.937Z,100812.49
